createdAt,value
2023-04-15T00:00:58.396Z,0.90
2023-04-15T00:03:25.668Z,0.90
2023-04-15T00:05:52.646Z,0.80
2023-04-15T00:08:20.354Z,1.27
2023-04-15T00:10:47.036Z,1.77
2023-04-15T00:13:13.712Z,0.80
2023-04-15T00:15:40.556Z,1.03
2023-04-15T00:18:08.017Z,0.87
2023-04-15T00:20:35.302Z,1.20
2023-04-15T00:23:03.834Z,1.10
2023-04-15T00:25:30.476Z,0.80
2023-04-15T00:27:57.066Z,0.80
2023-04-15T00:30:23.892Z,0.83
2023-04-15T00:32:50.855Z,1.20
2023-04-15T00:35:21.683Z,0.90
2023-04-15T00:37:50.035Z,1.00
2023-04-15T00:40:19.481Z,0.83
2023-04-15T00:42:46.124Z,1.03
2023-04-15T00:45:13.856Z,1.00
2023-04-15T00:47:43.238Z,1.40
2023-04-15T00:50:10.965Z,1.40
2023-04-15T00:52:38.939Z,1.53
2023-04-15T00:55:06.761Z,1.80
2023-04-15T00:57:33.946Z,1.67
2023-04-15T01:00:01.629Z,0.80
2023-04-15T01:02:28.901Z,0.50
2023-04-15T01:04:56.677Z,1.17
2023-04-15T01:07:23.406Z,1.23
2023-04-15T01:09:50.200Z,1.50
2023-04-15T01:12:17.701Z,0.87
2023-04-15T01:14:44.409Z,1.20
2023-04-15T01:17:11.195Z,1.43
2023-04-15T01:19:40.564Z,1.03
2023-04-15T01:22:08.316Z,0.70
2023-04-15T01:24:38.498Z,1.37
2023-04-15T01:27:05.385Z,1.73
2023-04-15T01:29:38.215Z,1.63
2023-04-15T01:32:05.829Z,0.90
2023-04-15T01:34:35.036Z,0.47
2023-04-15T01:37:02.264Z,1.10
2023-04-15T01:39:28.981Z,1.03
2023-04-15T01:41:57.352Z,1.27
2023-04-15T01:44:24.426Z,0.87
2023-04-15T01:46:51.078Z,1.13
2023-04-15T01:49:17.741Z,1.47
2023-04-15T01:51:44.640Z,1.17
2023-04-15T01:54:12.847Z,2.40
2023-04-15T01:56:39.666Z,1.33
2023-04-15T01:59:06.348Z,1.70
2023-04-15T02:01:33.801Z,0.53
2023-04-15T02:04:00.913Z,1.73
2023-04-15T02:06:28.138Z,1.70
2023-04-15T02:08:55.463Z,0.60
2023-04-15T02:11:23.104Z,1.10
2023-04-15T02:13:49.818Z,1.63
2023-04-15T02:16:19.901Z,1.70
2023-04-15T02:18:47.033Z,1.57
2023-04-15T02:21:13.978Z,2.03
2023-04-15T02:23:40.923Z,0.47
2023-04-15T02:26:08.042Z,1.30
2023-04-15T02:28:34.726Z,1.03
2023-04-15T02:31:06.305Z,1.17
2023-04-15T02:33:33.129Z,1.47
2023-04-15T02:36:00.935Z,1.93
2023-04-15T02:38:28.273Z,0.93
2023-04-15T02:40:55.416Z,1.20
2023-04-15T02:43:22.088Z,1.07
2023-04-15T02:45:50.221Z,1.60
2023-04-15T02:48:19.353Z,1.43
2023-04-15T02:50:47.619Z,0.93
2023-04-15T02:53:15.472Z,1.83
2023-04-15T02:55:42.861Z,1.30
2023-04-15T02:58:09.638Z,1.57
2023-04-15T03:00:36.347Z,1.27
2023-04-15T03:03:06.582Z,1.20
2023-04-15T03:05:33.577Z,1.07
2023-04-15T03:08:03.112Z,0.63
2023-04-15T03:10:29.728Z,1.07
2023-04-15T03:12:56.370Z,0.50
2023-04-15T03:15:24.055Z,1.03
2023-04-15T03:17:53.251Z,1.37
2023-04-15T03:20:20.307Z,1.73
2023-04-15T03:22:48.219Z,1.33
2023-04-15T03:25:15.055Z,1.27
2023-04-15T03:27:42.781Z,2.20
2023-04-15T03:30:09.933Z,0.60
2023-04-15T03:32:38.670Z,1.50
2023-04-15T03:35:06.911Z,0.87
2023-04-15T03:37:33.593Z,1.00
2023-04-15T03:40:00.461Z,0.60
2023-04-15T03:42:27.084Z,1.43
2023-04-15T03:44:53.725Z,1.40
2023-04-15T03:47:20.396Z,1.13
2023-04-15T03:49:47.070Z,1.13
2023-04-15T03:52:13.675Z,1.17
2023-04-15T03:54:40.257Z,2.50
2023-04-15T03:57:06.854Z,1.97
2023-04-15T03:59:33.462Z,0.70
2023-04-15T04:02:00.240Z,1.23
2023-04-15T04:04:26.950Z,1.63
2023-04-15T04:06:53.628Z,1.70
2023-04-15T04:09:20.520Z,2.60
2023-04-15T04:11:47.181Z,1.97
2023-04-15T04:14:13.765Z,1.60
2023-04-15T04:16:40.542Z,3.33
2023-04-15T04:19:07.623Z,1.43
2023-04-15T04:21:34.401Z,1.73
2023-04-15T04:24:01.080Z,1.63
2023-04-15T04:26:27.772Z,1.77
2023-04-15T04:28:54.387Z,1.13
2023-04-15T04:31:21.182Z,2.13
2023-04-15T04:33:47.855Z,1.77
2023-04-15T04:36:14.414Z,2.23
2023-04-15T04:38:41.351Z,2.50
2023-04-15T04:41:07.970Z,1.87
2023-04-15T04:43:34.629Z,1.47
2023-04-15T04:46:01.332Z,2.37
2023-04-15T04:48:28.098Z,1.53
2023-04-15T04:50:54.878Z,1.53
2023-04-15T04:53:21.493Z,1.80
2023-04-15T04:55:48.078Z,2.03
2023-04-15T04:58:14.678Z,2.77
2023-04-15T05:00:42.038Z,1.83
2023-04-15T05:03:08.935Z,3.37
2023-04-15T05:05:36.929Z,2.03
2023-04-15T05:08:03.631Z,2.53
2023-04-15T05:10:30.396Z,3.03
2023-04-15T05:12:57.510Z,2.10
2023-04-15T05:15:24.526Z,1.57
2023-04-15T05:17:51.526Z,1.83
2023-04-15T05:20:18.313Z,1.80
2023-04-15T05:22:44.961Z,1.70
2023-04-15T05:25:11.893Z,1.17
2023-04-15T05:27:38.551Z,2.70
2023-04-15T05:30:05.791Z,2.40
2023-04-15T05:32:32.428Z,2.60
2023-04-15T05:34:59.141Z,1.50
2023-04-15T05:37:26.091Z,2.00
2023-04-15T05:39:52.776Z,2.23
2023-04-15T05:42:19.436Z,3.03
2023-04-15T05:44:46.133Z,1.70
2023-04-15T05:47:12.741Z,2.37
2023-04-15T05:49:39.392Z,1.07
2023-04-15T05:52:06.265Z,1.67
2023-04-15T05:54:32.916Z,1.53
2023-04-15T05:56:59.527Z,1.17
2023-04-15T05:59:26.123Z,2.90
2023-04-15T06:01:52.919Z,2.57
2023-04-15T06:04:19.707Z,1.70
2023-04-15T06:06:46.487Z,2.90
2023-04-15T06:09:13.070Z,2.87
2023-04-15T06:11:41.252Z,1.40
2023-04-15T06:14:08.178Z,1.67
2023-04-15T06:16:36.486Z,2.17
2023-04-15T06:19:03.849Z,2.17
2023-04-15T06:21:31.437Z,2.33
2023-04-15T06:24:01.340Z,2.77
2023-04-15T06:26:28.189Z,2.70
2023-04-15T06:28:54.840Z,1.50
2023-04-15T06:31:21.552Z,1.60
2023-04-15T06:33:48.204Z,0.83
2023-04-15T06:36:15.214Z,2.43
2023-04-15T06:38:41.824Z,1.87
2023-04-15T06:41:08.538Z,1.07
2023-04-15T06:43:35.345Z,0.97
2023-04-15T06:46:02.345Z,2.53
2023-04-15T06:48:29.058Z,1.70
2023-04-15T06:50:56.243Z,1.83
2023-04-15T06:53:22.893Z,2.07
2023-04-15T06:55:49.541Z,2.13
2023-04-15T06:58:16.173Z,2.10
2023-04-15T07:00:42.773Z,1.90
2023-04-15T07:03:11.042Z,1.53
2023-04-15T07:05:38.353Z,2.20
2023-04-15T07:08:06.682Z,1.87
2023-04-15T07:10:37.043Z,1.37
2023-04-15T07:13:04.451Z,2.33
2023-04-15T07:15:31.050Z,1.00
2023-04-15T07:17:58.112Z,1.33
2023-04-15T07:20:24.906Z,2.70
2023-04-15T07:22:51.554Z,2.30
2023-04-15T07:25:18.981Z,2.13
2023-04-15T07:27:45.840Z,1.50
2023-04-15T07:30:12.752Z,2.37
2023-04-15T07:32:39.478Z,1.57
2023-04-15T07:35:06.343Z,1.53
2023-04-15T07:37:33.525Z,2.40
2023-04-15T07:40:01.315Z,2.90
2023-04-15T07:42:29.231Z,0.47
2023-04-15T07:44:56.546Z,1.93
2023-04-15T07:47:23.332Z,1.00
2023-04-15T07:49:51.394Z,1.67
2023-04-15T07:52:18.528Z,1.53
2023-04-15T07:54:45.531Z,2.27
2023-04-15T07:57:12.144Z,2.63
2023-04-15T07:59:38.739Z,3.50
2023-04-15T08:02:05.395Z,1.97
2023-04-15T08:04:32.572Z,2.63
2023-04-15T08:06:59.807Z,1.77
2023-04-15T08:09:27.067Z,2.40
2023-04-15T08:11:53.722Z,1.33
2023-04-15T08:14:20.721Z,1.57
2023-04-15T08:16:47.555Z,0.60
2023-04-15T08:19:14.215Z,2.43
2023-04-15T08:21:40.991Z,0.87
2023-04-15T08:24:08.036Z,1.27
2023-04-15T08:26:34.679Z,1.17
2023-04-15T08:29:01.738Z,2.87
2023-04-15T08:31:29.838Z,0.93
2023-04-15T08:33:57.591Z,1.47
2023-04-15T08:36:24.203Z,1.40
2023-04-15T08:38:51.121Z,2.30
2023-04-15T08:41:34.387Z,1.93
2023-04-15T08:44:05.674Z,1.60
2023-04-15T08:46:36.438Z,1.77
2023-04-15T08:49:05.288Z,2.30
2023-04-15T08:51:33.862Z,1.33
2023-04-15T08:54:02.420Z,1.17
2023-04-15T08:56:32.945Z,1.43
2023-04-15T08:59:00.581Z,2.03
2023-04-15T09:01:27.572Z,2.27
2023-04-15T09:03:54.752Z,0.40
2023-04-15T09:06:22.813Z,1.37
2023-04-15T09:08:50.481Z,1.20
2023-04-15T09:11:19.988Z,1.07
2023-04-15T09:13:46.861Z,1.23
2023-04-15T09:16:14.299Z,1.27
2023-04-15T09:18:41.142Z,1.00
2023-04-15T09:21:11.190Z,1.13
2023-04-15T09:23:53.546Z,1.00
2023-04-15T09:26:20.258Z,2.13
2023-04-15T09:28:46.879Z,1.33
2023-04-15T09:31:13.546Z,0.47
2023-04-15T09:33:56.494Z,0.63
2023-04-15T09:36:24.947Z,0.80
2023-04-15T09:38:59.220Z,0.70
2023-04-15T09:41:26.608Z,1.43
2023-04-15T09:43:53.462Z,0.50
2023-04-15T09:46:20.355Z,1.37
2023-04-15T09:48:47.225Z,0.60
2023-04-15T09:51:14.099Z,0.50
2023-04-15T09:53:40.723Z,0.77
2023-04-15T09:56:08.826Z,1.27
2023-04-15T09:58:37.254Z,0.50
2023-04-15T10:01:05.162Z,0.90
2023-04-15T10:03:35.369Z,1.37
2023-04-15T10:06:03.575Z,1.40
2023-04-15T10:08:33.066Z,0.63
2023-04-15T10:11:02.021Z,0.80
2023-04-15T10:13:36.391Z,0.50
2023-04-15T10:16:10.777Z,0.73
2023-04-15T10:18:44.051Z,1.67
2023-04-15T10:21:11.227Z,0.43
2023-04-15T10:23:38.717Z,1.47
2023-04-15T10:26:06.958Z,0.87
2023-04-15T10:28:34.724Z,0.90
2023-04-15T10:31:01.874Z,1.67
2023-04-15T10:33:29.587Z,2.00
2023-04-15T10:35:56.722Z,0.40
2023-04-15T10:38:39.932Z,2.27
2023-04-15T10:41:26.818Z,0.87
2023-04-15T10:43:57.696Z,1.87
2023-04-15T10:46:41.917Z,0.83
2023-04-15T10:49:16.361Z,0.90
2023-04-15T10:51:45.979Z,1.23
2023-04-15T10:54:30.679Z,1.03
2023-04-15T10:57:06.538Z,2.33
2023-04-15T10:59:37.641Z,1.33
2023-04-15T11:02:06.821Z,1.33
2023-04-15T11:04:57.491Z,0.90
2023-04-15T11:07:50.442Z,1.07
2023-04-15T11:10:26.390Z,0.63
2023-04-15T11:13:04.863Z,1.47
2023-04-15T11:15:47.455Z,0.40
2023-04-15T11:18:25.665Z,0.80
2023-04-15T11:20:59.517Z,0.63
2023-04-15T11:23:46.682Z,1.37
2023-04-15T11:26:14.081Z,0.60
2023-04-15T11:28:43.190Z,1.90
2023-04-15T11:31:16.285Z,0.70
2023-04-15T11:34:02.307Z,0.40
2023-04-15T11:36:31.733Z,0.97
2023-04-15T11:38:59.478Z,1.57
2023-04-15T11:41:26.380Z,1.47
2023-04-15T11:43:53.410Z,0.60
2023-04-15T11:46:22.009Z,0.40
2023-04-15T11:48:48.722Z,0.70
2023-04-15T11:51:15.501Z,0.30
2023-04-15T11:53:49.805Z,0.50
2023-04-15T11:56:24.814Z,0.80
2023-04-15T11:59:02.113Z,0.70
2023-04-15T12:01:35.969Z,0.40
2023-04-15T12:04:10.994Z,0.90
2023-04-15T12:06:38.978Z,0.60
2023-04-15T12:09:16.636Z,1.33
2023-04-15T12:11:48.431Z,0.70
2023-04-15T12:14:31.013Z,0.60
2023-04-15T12:17:02.962Z,0.80
2023-04-15T12:19:38.579Z,1.00
2023-04-15T12:22:08.681Z,0.70
2023-04-15T12:24:36.558Z,0.50
2023-04-15T12:27:07.875Z,1.07
2023-04-15T12:29:36.844Z,0.50
2023-04-15T12:32:15.078Z,0.50
2023-04-15T12:34:49.114Z,0.40
2023-04-15T12:37:15.896Z,1.17
2023-04-15T12:39:45.198Z,1.83
2023-04-15T12:42:12.479Z,1.03
2023-04-15T12:44:39.746Z,1.33
2023-04-15T12:47:07.750Z,2.30
2023-04-15T12:49:34.562Z,1.40
2023-04-15T12:52:02.508Z,0.87
2023-04-15T12:54:30.256Z,0.93
2023-04-15T12:56:57.577Z,1.87
2023-04-15T12:59:24.390Z,1.70
2023-04-15T13:01:52.549Z,1.23
2023-04-15T13:04:20.593Z,2.20
2023-04-15T13:06:47.627Z,1.07
2023-04-15T13:09:14.333Z,2.00
2023-04-15T13:11:41.252Z,1.07
2023-04-15T13:14:09.220Z,1.53
2023-04-15T13:16:36.114Z,1.60
2023-04-15T13:19:04.080Z,1.70
2023-04-15T13:21:34.982Z,1.60
2023-04-15T13:24:01.980Z,0.77
2023-04-15T13:26:29.063Z,1.50
2023-04-15T13:29:14.006Z,1.87
2023-04-15T13:31:40.951Z,2.93
2023-04-15T13:34:07.844Z,1.13
2023-04-15T13:36:34.681Z,1.23
2023-04-15T13:39:01.425Z,0.93
2023-04-15T13:41:28.096Z,1.47
2023-04-15T13:43:55.878Z,1.83
2023-04-15T13:46:22.552Z,2.23
2023-04-15T13:48:49.738Z,1.23
2023-04-15T13:51:16.329Z,1.63
2023-04-15T13:53:42.903Z,1.27
2023-04-15T13:56:10.214Z,2.37
2023-04-15T13:58:37.873Z,2.30
2023-04-15T14:01:05.965Z,1.57
2023-04-15T14:03:34.242Z,0.57
2023-04-15T14:06:01.229Z,1.50
2023-04-15T14:08:27.883Z,2.03
2023-04-15T14:10:54.472Z,1.43
2023-04-15T14:13:21.238Z,2.13
2023-04-15T14:15:47.847Z,2.33
2023-04-15T14:18:14.535Z,1.57
2023-04-15T14:20:41.163Z,2.00
2023-04-15T14:23:07.864Z,2.60
2023-04-15T14:25:34.534Z,1.73
2023-04-15T14:28:02.198Z,2.10
2023-04-15T14:30:28.918Z,2.47
2023-04-15T14:32:55.680Z,2.47
2023-04-15T14:35:24.437Z,2.87
2023-04-15T14:37:51.077Z,3.17
2023-04-15T14:40:17.733Z,4.33
2023-04-15T14:42:44.320Z,2.77
2023-04-15T14:45:11.187Z,2.47
2023-04-15T14:47:38.068Z,2.73
2023-04-15T14:50:05.322Z,3.47
2023-04-15T14:52:38.778Z,2.60
2023-04-15T14:55:07.729Z,3.43
2023-04-15T14:57:34.391Z,1.80
2023-04-15T15:00:01.104Z,2.63
2023-04-15T15:02:38.292Z,2.10
2023-04-15T15:05:06.009Z,1.93
2023-04-15T15:07:32.770Z,2.67
2023-04-15T15:09:59.431Z,2.37
2023-04-15T15:12:26.116Z,2.50
2023-04-15T15:14:52.859Z,2.90
2023-04-15T15:17:19.480Z,3.43
2023-04-15T15:19:46.107Z,2.67
2023-04-15T15:22:12.799Z,3.67
2023-04-15T15:24:39.394Z,2.77
2023-04-15T15:27:06.065Z,4.13
2023-04-15T15:29:32.715Z,3.60
2023-04-15T15:31:59.469Z,2.83
2023-04-15T15:34:26.383Z,2.67
2023-04-15T15:36:53.623Z,3.77
2023-04-15T15:39:20.295Z,4.27
2023-04-15T15:41:46.998Z,2.33
2023-04-15T15:44:13.593Z,2.80
2023-04-15T15:46:40.353Z,3.00
2023-04-15T15:49:07.074Z,4.17
2023-04-15T15:51:33.842Z,5.07
2023-04-15T15:54:00.956Z,3.03
2023-04-15T15:56:27.649Z,4.80
2023-04-15T15:58:54.249Z,2.77
2023-04-15T16:01:21.236Z,4.50
2023-04-15T16:03:48.013Z,2.67
2023-04-15T16:06:14.688Z,2.23
2023-04-15T16:08:41.352Z,4.40
2023-04-15T16:11:07.982Z,4.28
2023-04-15T16:13:34.585Z,2.97
2023-04-15T16:16:01.197Z,2.63
2023-04-15T16:18:28.030Z,3.57
2023-04-15T16:20:54.646Z,4.50
2023-04-15T16:23:21.661Z,2.77
2023-04-15T16:25:48.328Z,4.33
2023-04-15T16:28:25.546Z,4.13
2023-04-15T16:30:52.769Z,2.90
2023-04-15T16:33:19.381Z,2.20
2023-04-15T16:35:45.966Z,3.83
2023-04-15T16:38:12.614Z,1.93
2023-04-15T16:40:39.295Z,6.63
2023-04-15T16:43:11.127Z,3.17
2023-04-15T16:45:38.023Z,4.43
2023-04-15T16:48:04.914Z,3.33
2023-04-15T16:50:31.650Z,3.33
2023-04-15T16:52:58.262Z,3.33
2023-04-15T16:55:25.309Z,3.67
2023-04-15T16:58:00.935Z,3.43
2023-04-15T17:00:35.847Z,3.17
2023-04-15T17:03:03.158Z,4.70
2023-04-15T17:05:33.092Z,4.32
2023-04-15T17:07:59.796Z,3.33
2023-04-15T17:10:26.753Z,4.33
2023-04-15T17:12:56.087Z,3.57
2023-04-15T17:15:22.778Z,2.70
2023-04-15T17:17:49.496Z,2.37
2023-04-15T17:20:17.417Z,3.80
2023-04-15T17:22:44.129Z,4.00
2023-04-15T17:25:10.711Z,4.13
2023-04-15T17:27:38.582Z,4.97
2023-04-15T17:30:06.675Z,2.17
2023-04-15T17:32:34.622Z,3.20
2023-04-15T17:35:03.481Z,4.63
2023-04-15T17:37:30.106Z,6.20
2023-04-15T17:39:56.709Z,2.83
2023-04-15T17:42:23.372Z,3.80
2023-04-15T17:44:50.019Z,3.37
2023-04-15T17:47:17.002Z,5.13
2023-04-15T17:49:44.297Z,4.20
2023-04-15T17:52:11.244Z,4.07
2023-04-15T17:54:37.894Z,2.93
2023-04-15T17:57:04.643Z,2.93
2023-04-15T17:59:31.235Z,3.20
2023-04-15T18:01:58.553Z,4.43
2023-04-15T18:04:26.879Z,4.07
2023-04-15T18:06:56.913Z,3.83
2023-04-15T18:09:23.619Z,3.27
2023-04-15T18:11:50.397Z,3.70
2023-04-15T18:14:30.736Z,5.47
2023-04-15T18:16:59.957Z,5.73
2023-04-15T18:19:26.584Z,3.13
2023-04-15T18:21:53.285Z,3.67
2023-04-15T18:24:19.945Z,6.63
2023-04-15T18:26:48.848Z,3.07
2023-04-15T18:29:16.013Z,4.97
2023-04-15T18:31:42.681Z,3.90
2023-04-15T18:34:09.379Z,7.47
2023-04-15T18:36:36.256Z,4.30
2023-04-15T18:39:04.201Z,3.47
2023-04-15T18:41:31.109Z,3.77
2023-04-15T18:43:57.768Z,5.10
2023-04-15T18:46:24.615Z,4.07
2023-04-15T18:48:51.219Z,3.37
2023-04-15T18:51:17.825Z,4.83
2023-04-15T18:53:44.606Z,3.70
2023-04-15T18:56:11.412Z,2.50
2023-04-15T18:59:18.272Z,4.83
2023-04-15T19:01:24.802Z,3.03
2023-04-15T19:03:51.435Z,5.77
2023-04-15T19:06:18.209Z,4.53
2023-04-15T19:08:44.859Z,5.80
2023-04-15T19:11:11.581Z,4.73
2023-04-15T19:13:38.231Z,4.43
2023-04-15T19:16:05.105Z,5.10
2023-04-15T19:18:32.148Z,4.20
2023-04-15T19:20:58.799Z,5.97
2023-04-15T19:23:25.523Z,4.63
2023-04-15T19:25:52.106Z,5.00
2023-04-15T19:28:18.746Z,4.63
2023-04-15T19:30:45.426Z,4.73
2023-04-15T19:33:12.464Z,3.27
2023-04-15T19:35:40.907Z,3.63
2023-04-15T19:38:07.552Z,4.67
2023-04-15T19:40:34.129Z,5.43
2023-04-15T19:43:00.972Z,6.03
2023-04-15T19:45:27.673Z,3.40
2023-04-15T19:47:54.518Z,4.37
2023-04-15T19:50:25.794Z,5.43
2023-04-15T19:52:53.001Z,5.20
2023-04-15T19:55:19.889Z,4.50
2023-04-15T19:57:46.840Z,4.70
2023-04-15T20:00:13.626Z,5.03
2023-04-15T20:02:40.466Z,5.33
2023-04-15T20:05:09.842Z,4.10
2023-04-15T20:07:36.618Z,4.70
2023-04-15T20:10:03.424Z,5.43
2023-04-15T20:12:51.756Z,5.60
2023-04-15T20:15:22.449Z,4.57
2023-04-15T20:17:49.854Z,6.90
2023-04-15T20:20:16.534Z,3.90
2023-04-15T20:22:43.172Z,7.73
2023-04-15T20:25:09.922Z,3.77
2023-04-15T20:27:36.537Z,4.37
2023-04-15T20:30:04.836Z,5.82
2023-04-15T20:32:35.257Z,4.82
2023-04-15T20:35:04.105Z,6.80
2023-04-15T20:37:33.006Z,5.30
2023-04-15T20:40:00.635Z,9.20
2023-04-15T20:42:27.387Z,5.67
2023-04-15T20:44:54.050Z,5.20
2023-04-15T20:47:20.961Z,6.10
2023-04-15T20:49:47.651Z,6.90
2023-04-15T20:52:14.259Z,4.93
2023-04-15T20:54:41.041Z,4.00
2023-04-15T20:57:07.627Z,7.20
2023-04-15T20:59:34.788Z,5.77
2023-04-15T21:02:01.985Z,4.03
2023-04-15T21:04:28.654Z,6.20
2023-04-15T21:06:55.399Z,6.57
2023-04-15T21:09:22.033Z,6.07
2023-04-15T21:14:18.844Z,6.07
2023-04-15T21:16:45.577Z,6.07
2023-04-15T21:19:12.244Z,4.17
2023-04-15T21:21:38.841Z,5.60
2023-04-15T21:24:07.549Z,4.47
2023-04-15T21:26:35.687Z,7.80
2023-04-15T21:29:02.855Z,4.43
2023-04-15T21:31:29.959Z,5.17
2023-04-15T21:33:56.667Z,4.73
2023-04-15T21:36:23.332Z,5.03
2023-04-15T21:38:49.942Z,5.53
2023-04-15T21:41:16.529Z,8.00
2023-04-15T21:43:43.139Z,7.40
2023-04-15T21:46:22.539Z,6.40
2023-04-15T21:48:52.534Z,4.70
2023-04-15T21:51:19.133Z,5.93
2023-04-15T21:53:45.753Z,6.07
2023-04-15T21:56:12.394Z,3.77
2023-04-15T21:58:39.049Z,4.47
2023-04-15T22:01:05.849Z,5.47
2023-04-15T22:03:34.713Z,9.43
2023-04-15T22:06:02.761Z,7.33
2023-04-15T22:08:32.129Z,3.70
2023-04-15T22:11:00.516Z,5.47
2023-04-15T22:13:27.102Z,6.43
2023-04-15T22:15:53.695Z,6.13
2023-04-15T22:18:20.300Z,5.17
2023-04-15T22:20:46.894Z,4.13
2023-04-15T22:23:13.504Z,4.63
2023-04-15T22:25:40.416Z,4.97
2023-04-15T22:28:08.328Z,3.87
2023-04-15T22:30:42.048Z,4.27
2023-04-15T22:33:09.455Z,6.28
2023-04-15T22:35:37.236Z,3.07
2023-04-15T22:38:05.030Z,6.27
2023-04-15T22:40:31.800Z,4.40
2023-04-15T22:42:58.408Z,6.20
2023-04-15T22:45:25.028Z,4.37
2023-04-15T22:47:51.716Z,5.30
2023-04-15T22:50:18.378Z,2.83
2023-04-15T22:52:48.186Z,6.13
2023-04-15T22:55:14.979Z,7.17
2023-04-15T22:57:41.576Z,4.88
2023-04-15T23:00:09.282Z,5.27
2023-04-15T23:02:36.055Z,4.60
2023-04-15T23:05:11.728Z,4.47
2023-04-15T23:07:39.875Z,3.80
2023-04-15T23:10:07.874Z,3.10
2023-04-15T23:12:34.593Z,3.30
2023-04-15T23:15:01.234Z,3.33
2023-04-15T23:17:27.963Z,3.73
2023-04-15T23:19:54.591Z,4.33
2023-04-15T23:22:21.203Z,6.43
2023-04-15T23:24:47.776Z,7.10
2023-04-15T23:27:14.383Z,3.57
2023-04-15T23:29:41.120Z,4.80
2023-04-15T23:32:07.685Z,2.83
2023-04-15T23:34:34.278Z,5.50
2023-04-15T23:37:00.912Z,4.23
2023-04-15T23:39:27.616Z,4.47
2023-04-15T23:41:54.330Z,6.30
2023-04-15T23:44:20.900Z,5.57
2023-04-15T23:46:47.603Z,3.13
2023-04-15T23:49:14.234Z,4.47
2023-04-15T23:51:41.181Z,4.40
2023-04-15T23:54:07.824Z,5.67
2023-04-15T23:56:34.463Z,3.45
2023-04-15T23:59:01.094Z,3.63
